Time;durP1;ratioP1;P1;durP2;ratioP2;P2;SDS_P1;SDS_P2;PMS_P1;PMS_P2;Temp;Humidity;BMP_temperature;BMP_pressure;BME280_temperature;BME280_humidity;BME280_pressure;Samples;Min_cycle;Max_cycle;Signal;HPM_P1;HPM_P2
2022/12/09 05:00:33;;;;;;;1999.90;999.90;;;-2.40;99.90;;;;;;5921094;22;20141;-82
2022/12/09 05:02:58;;;;;;;1999.90;999.90;;;-2.40;99.90;;;;;;4980556;28;20576;-82
2022/12/09 05:05:24;;;;;;;1999.90;999.90;;;-2.40;99.90;;;;;;4980765;28;20035;-82
2022/12/09 05:07:49;;;;;;;1999.90;999.90;;;-2.40;99.90;;;;;;4982804;28;20066;-82
2022/12/09 05:10:15;;;;;;;1999.90;999.90;;;-2.40;99.90;;;;;;4982981;28;20126;-82
2022/12/09 05:12:40;;;;;;;1999.90;999.90;;;-2.40;99.90;;;;;;4982826;28;20051;-82
2022/12/09 05:15:07;;;;;;;1999.90;999.90;;;-2.40;99.90;;;;;;5011344;22;20050;-80
2022/12/09 05:17:32;;;;;;;1999.90;999.90;;;-2.40;99.90;;;;;;4995929;28;20109;-80
2022/12/09 05:19:58;;;;;;;1999.90;999.90;;;-2.30;99.90;;;;;;4994062;28;20042;-80
2022/12/09 05:22:23;;;;;;;1999.90;999.90;;;-2.40;99.90;;;;;;4995742;28;20123;-79
2022/12/09 05:24:49;;;;;;;1999.90;999.90;;;-2.50;99.90;;;;;;4995167;28;20062;-80
2022/12/09 05:27:15;;;;;;;1999.90;999.90;;;-2.50;99.90;;;;;;4994065;28;20039;-80
2022/12/09 05:29:40;;;;;;;1999.90;999.90;;;-2.50;99.90;;;;;;4994149;28;20045;-80
2022/12/09 05:32:06;;;;;;;1999.90;999.90;;;-2.50;99.90;;;;;;4993987;28;20053;-80
2022/12/09 05:34:32;;;;;;;1999.90;999.90;;;-2.50;99.90;;;;;;4993963;28;20037;-80
2022/12/09 05:36:57;;;;;;;1999.90;999.90;;;-2.50;99.90;;;;;;4995452;28;20031;-80
2022/12/09 05:39:23;;;;;;;1999.90;999.90;;;-2.60;99.90;;;;;;4994078;28;20480;-80
2022/12/09 05:41:49;;;;;;;1999.90;999.90;;;-2.50;99.90;;;;;;4997789;28;20458;-81
2022/12/09 05:44:14;;;;;;;1999.90;999.90;;;-2.50;99.90;;;;;;4994305;28;20046;-80
2022/12/09 05:46:40;;;;;;;1999.90;999.90;;;-2.40;99.90;;;;;;4994912;28;20041;-81
2022/12/09 05:49:06;;;;;;;1999.90;999.90;;;-2.40;99.90;;;;;;4997091;28;20118;-82
2022/12/09 05:51:32;;;;;;;1999.90;999.90;;;-2.40;99.90;;;;;;4997615;28;20404;-81
2022/12/09 05:54:03;;;;;;;1999.90;999.90;;;-2.30;99.90;;;;;;4997701;28;20031;-80
2022/12/09 05:56:29;;;;;;;1999.90;999.90;;;-2.30;99.90;;;;;;4999332;28;20121;-81
2022/12/09 05:58:55;;;;;;;1999.90;999.90;;;-2.30;99.90;;;;;;5000137;28;20038;-81
2022/12/09 06:01:21;;;;;;;1999.90;999.90;;;-2.20;99.90;;;;;;4999113;28;20869;-81
2022/12/09 06:03:49;;;;;;;1999.90;999.90;;;-2.20;99.90;;;;;;5000510;28;20489;-81
2022/12/09 06:06:18;;;;;;;1999.90;999.90;;;-2.20;99.90;;;;;;4997432;28;20035;-81
2022/12/09 06:08:45;;;;;;;1999.90;999.90;;;-2.30;99.90;;;;;;4998474;28;20086;-81
2022/12/09 06:11:19;;;;;;;1999.90;999.90;;;-2.40;99.90;;;;;;4999094;28;20047;-81
2022/12/09 06:13:46;;;;;;;1999.90;999.90;;;-2.30;99.90;;;;;;4999171;28;20065;-82
2022/12/09 06:16:13;;;;;;;1999.90;999.90;;;-2.30;99.90;;;;;;4997612;28;20055;-82
2022/12/09 06:18:39;;;;;;;1999.90;999.90;;;-2.20;99.90;;;;;;4998506;28;20031;-82
2022/12/09 06:21:09;;;;;;;1999.90;999.90;;;-2.30;99.90;;;;;;4998731;28;20408;-81
2022/12/09 06:23:36;;;;;;;1999.90;999.90;;;-2.40;99.90;;;;;;4997712;28;20035;-81
2022/12/09 06:26:02;;;;;;;1999.90;999.90;;;-2.50;99.90;;;;;;4997692;28;20090;-81
2022/12/09 06:28:28;;;;;;;1999.90;999.90;;;-2.50;99.90;;;;;;4998098;28;20476;-82
2022/12/09 06:30:55;;;;;;;1999.90;999.90;;;-2.40;99.90;;;;;;4999126;28;20043;-81
2022/12/09 06:33:21;;;;;;;1999.90;999.90;;;-2.40;99.90;;;;;;4999470;28;20440;-81
2022/12/09 06:35:46;;;;;;;1999.90;999.90;;;-2.30;99.90;;;;;;4998966;28;20039;-80
2022/12/09 06:38:12;;;;;;;1999.90;999.90;;;-2.40;99.90;;;;;;4997572;28;20070;-81
2022/12/09 06:40:41;;;;;;;1999.90;999.90;;;-2.40;99.90;;;;;;4996898;28;20070;-80
2022/12/09 06:43:08;;;;;;;1999.90;999.90;;;-2.30;99.90;;;;;;4996680;28;20117;-81
2022/12/09 06:45:37;;;;;;;1999.90;999.90;;;-2.40;99.90;;;;;;4997074;28;20041;-81
2022/12/09 06:48:04;;;;;;;1999.90;999.90;;;-2.40;99.90;;;;;;4996872;28;20061;-80
2022/12/09 06:50:29;;;;;;;1999.90;999.90;;;-2.30;99.90;;;;;;4998312;28;20567;-81
2022/12/09 06:52:56;;;;;;;1999.90;999.90;;;-2.30;99.90;;;;;;4998569;28;20039;-81
2022/12/09 06:55:21;;;;;;;1999.90;999.90;;;-2.40;99.90;;;;;;4997180;28;20062;-82
2022/12/09 06:57:47;;;;;;;1999.90;999.90;;;-2.40;99.90;;;;;;4997896;28;20501;-83
2022/12/09 07:00:14;;;;;;;1999.90;999.90;;;-2.30;99.90;;;;;;4998115;28;20043;-83
2022/12/09 07:02:39;;;;;;;1999.90;999.90;;;-2.30;99.90;;;;;;4997250;28;20069;-83
2022/12/09 07:05:06;;;;;;;1999.90;999.90;;;-2.30;99.90;;;;;;4997431;28;20093;-84
2022/12/09 07:07:32;;;;;;;1999.90;999.90;;;-2.30;99.90;;;;;;4997916;28;20035;-81
2022/12/09 07:10:00;;;;;;;1999.90;999.90;;;-2.40;99.90;;;;;;4998261;28;20117;-82
2022/12/09 07:12:25;;;;;;;1999.90;999.90;;;-2.30;99.90;;;;;;4997503;28;20902;-82
2022/12/09 07:14:51;;;;;;;1999.90;999.90;;;-2.20;99.90;;;;;;4997935;28;20532;-82
2022/12/09 07:17:18;;;;;;;1999.90;999.90;;;-2.20;99.90;;;;;;4996570;28;20039;-82
2022/12/09 07:19:44;;;;;;;1999.90;999.90;;;-2.20;99.90;;;;;;4995882;28;20587;-82
2022/12/09 07:22:10;;;;;;;1999.90;999.90;;;-2.10;99.90;;;;;;4996128;28;20473;-82
2022/12/09 07:24:37;;;;;;;1999.90;999.90;;;-2.00;99.90;;;;;;4997465;28;20082;-82
2022/12/09 07:27:05;;;;;;;1999.90;999.90;;;-2.10;99.90;;;;;;4996393;28;20046;-83
2022/12/09 07:29:31;;;;;;;1999.90;999.90;;;-2.00;99.90;;;;;;4996758;28;20055;-83
2022/12/09 07:31:57;;;;;;;1999.90;999.90;;;-2.00;99.90;;;;;;4997143;28;20046;-82
2022/12/09 07:34:23;;;;;;;1999.90;999.90;;;-1.90;99.90;;;;;;4997629;28;20141;-84
2022/12/09 07:36:48;;;;;;;1999.90;999.90;;;-1.80;99.90;;;;;;4997374;28;20035;-83
2022/12/09 07:39:16;;;;;;;1999.90;999.90;;;-1.70;99.90;;;;;;4997077;28;20113;-83
2022/12/09 07:41:42;;;;;;;1999.90;999.90;;;-1.70;99.90;;;;;;4996339;28;20030;-83
2022/12/09 07:44:09;;;;;;;1999.90;999.90;;;-1.60;99.90;;;;;;4996340;28;20027;-83
2022/12/09 07:46:35;;;;;;;1999.90;999.90;;;-1.60;99.90;;;;;;4996442;28;20035;-83
2022/12/09 07:49:03;;;;;;;1999.90;999.90;;;-1.50;99.90;;;;;;4996636;28;20511;-83
2022/12/09 07:51:29;;;;;;;1999.90;999.90;;;-1.50;99.90;;;;;;4995571;28;20039;-81
2022/12/09 07:53:55;;;;;;;1999.90;999.90;;;-1.50;99.90;;;;;;4997114;28;20031;-81
2022/12/09 07:56:22;;;;;;;1999.90;999.90;;;-1.40;99.90;;;;;;4996713;28;20049;-80
2022/12/09 07:58:50;;;;;;;1999.90;999.90;;;-1.20;99.90;;;;;;4996272;28;20516;-80
2022/12/09 08:01:22;;;;;;;1999.90;999.90;;;-1.20;99.90;;;;;;4997347;28;20094;-81
2022/12/09 08:03:48;;;;;;;1999.90;999.90;;;-1.20;99.90;;;;;;4996875;28;20035;-82
2022/12/09 08:06:16;;;;;;;1999.90;999.90;;;-1.20;99.90;;;;;;4997922;28;20497;-82
2022/12/09 08:08:43;;;;;;;1999.90;999.90;;;-1.00;99.90;;;;;;4996693;28;20031;-82
2022/12/09 08:11:11;;;;;;;1999.90;999.90;;;-1.00;99.90;;;;;;4996625;28;20046;-82
2022/12/09 08:13:37;;;;;;;1999.90;999.90;;;-0.90;99.90;;;;;;4994910;28;20026;-77
2022/12/09 08:16:04;;;;;;;1999.90;999.90;;;-0.90;99.90;;;;;;4995023;28;20039;-77
2022/12/09 08:18:30;;;;;;;1999.90;999.90;;;-0.90;99.90;;;;;;4997955;28;20050;-77
2022/12/09 08:20:56;;;;;;;1999.90;999.90;;;-0.80;99.90;;;;;;4997006;28;20034;-75
2022/12/09 08:23:21;;;;;;;1999.90;999.90;;;-0.80;99.90;;;;;;4997232;28;20366;-77
2022/12/09 08:25:52;;;;;;;1999.90;999.90;;;-0.60;99.90;;;;;;4996527;28;20601;-75
2022/12/09 08:28:18;;;;;;;1999.90;999.90;;;-0.50;99.90;;;;;;4997356;28;20050;-79
2022/12/09 08:30:43;;;;;;;1999.90;999.90;;;-0.40;99.90;;;;;;5005601;28;20046;-77
2022/12/09 08:33:09;;;;;;;1999.90;999.90;;;-0.30;99.90;;;;;;4998200;28;20039;-88
2022/12/09 08:35:36;;;;;;;1999.90;999.90;;;-0.30;99.90;;;;;;4995789;28;20034;-77
2022/12/09 08:38:02;;;;;;;1999.90;999.90;;;-0.20;99.90;;;;;;4996880;28;20034;-78
2022/12/09 08:40:27;;;;;;;1999.90;999.90;;;-0.10;99.90;;;;;;4998919;28;20050;-85
2022/12/09 08:42:53;;;;;;;1999.90;999.90;;;0.00;99.90;;;;;;5000610;28;20481;-82
2022/12/09 08:45:18;;;;;;;1999.90;999.90;;;0.10;99.90;;;;;;5009617;28;20047;-83
2022/12/09 08:47:44;;;;;;;1999.90;999.90;;;0.10;99.90;;;;;;5008231;28;20102;-81
2022/12/09 08:50:10;;;;;;;1999.90;999.90;;;0.10;99.90;;;;;;5004683;28;20058;-82
2022/12/09 08:52:35;;;;;;;1999.90;999.90;;;0.20;99.90;;;;;;5007961;28;20844;-84
2022/12/09 08:55:01;;;;;;;1999.90;999.90;;;0.30;99.90;;;;;;5005583;28;20038;-81
2022/12/09 08:57:27;;;;;;;1999.90;999.90;;;0.40;99.90;;;;;;4999917;28;20031;-82
2022/12/09 08:59:53;;;;;;;1999.90;999.90;;;0.50;99.90;;;;;;5000716;28;20035;-82
2022/12/09 09:02:20;;;;;;;1999.90;999.90;;;0.60;99.90;;;;;;5000892;28;20127;-84
2022/12/09 09:04:45;;;;;;;1999.90;999.90;;;0.60;99.90;;;;;;5003441;28;20757;-81
2022/12/09 09:07:12;;;;;;;1999.90;999.90;;;0.70;99.90;;;;;;5002269;28;20042;-82
2022/12/09 09:09:38;;;;;;;1999.90;999.90;;;0.80;99.90;;;;;;5002582;28;20042;-82
2022/12/09 09:12:04;;;;;;;1999.90;999.90;;;0.80;99.90;;;;;;5001234;28;20043;-82
2022/12/09 09:14:30;;;;;;;1999.90;999.90;;;0.80;99.90;;;;;;5003210;28;20501;-82
2022/12/09 09:16:55;;;;;;;1999.90;999.90;;;1.00;99.90;;;;;;5004186;28;20039;-83
2022/12/09 09:19:24;;;;;;;1999.90;999.90;;;1.10;99.90;;;;;;5004057;28;20031;-82
2022/12/09 09:21:51;;;;;;;1999.90;999.90;;;1.30;99.90;;;;;;5002374;28;20045;-81
2022/12/09 09:24:19;;;;;;;1999.90;999.90;;;1.40;99.90;;;;;;5006269;28;20035;-85
2022/12/09 09:26:46;;;;;;;1999.90;999.90;;;1.60;99.90;;;;;;5009786;28;20043;-82
2022/12/09 09:29:17;;;;;;;1999.90;999.90;;;1.70;99.90;;;;;;5004853;28;20468;-83
2022/12/09 09:31:46;;;;;;;1999.90;999.90;;;1.80;99.90;;;;;;5002091;28;20042;-83
2022/12/09 09:34:12;;;;;;;1999.90;999.90;;;1.80;99.90;;;;;;5001069;28;20030;-82
2022/12/09 09:36:39;;;;;;;1999.90;999.90;;;1.70;99.90;;;;;;5003986;28;20031;-83
2022/12/09 09:39:05;;;;;;;1999.90;999.90;;;1.70;99.90;;;;;;5002515;28;20031;-83
2022/12/09 09:41:39;;;;;;;1999.90;999.90;;;1.60;99.90;;;;;;5003077;28;20035;-83
2022/12/09 09:44:31;;;;;;;1999.90;999.90;;;1.70;99.90;;;;;;5003019;28;20484;-83
2022/12/09 09:46:58;;;;;;;1999.90;999.90;;;1.70;99.90;;;;;;5002050;28;20038;-82
2022/12/09 09:49:47;;;;;;;1999.90;999.90;;;1.50;99.90;;;;;;5005198;28;20031;-82
2022/12/09 09:52:19;;;;;;;1999.90;999.90;;;1.40;99.90;;;;;;5005511;28;20035;-81
2022/12/09 09:54:45;;;;;;;1999.90;999.90;;;1.30;99.90;;;;;;4995553;28;20103;-82
2022/12/09 09:57:34;;;;;;;1999.90;999.90;;;1.20;99.90;;;;;;4995743;28;20121;-82
2022/12/09 10:00:18;;;;;;;1999.90;999.90;;;1.20;99.90;;;;;;4999393;28;20031;-81
2022/12/09 10:03:13;;;;;;;1999.90;999.90;;;1.10;99.90;;;;;;4979015;28;20127;-79
2022/12/09 10:05:57;;;;;;;1999.90;999.90;;;1.10;99.90;;;;;;4980757;28;20552;-82
2022/12/09 10:08:55;;;;;;;1999.90;999.90;;;1.10;99.90;;;;;;4978678;28;20039;-81
2022/12/09 10:11:27;;;;;;;1999.90;999.90;;;1.10;99.90;;;;;;4978100;28;20039;-83
2022/12/09 10:13:55;;;;;;;1999.90;999.90;;;1.20;99.90;;;;;;4978860;28;20083;-83
2022/12/09 10:16:43;;;;;;;1999.90;999.90;;;1.20;99.90;;;;;;4977634;28;20094;-83
2022/12/09 10:19:20;;;;;;;1999.90;999.90;;;1.20;99.90;;;;;;4980290;28;20038;-83
2022/12/09 10:21:49;;;;;;;1999.90;999.90;;;1.20;99.90;;;;;;4978896;28;20039;-81
2022/12/09 10:24:31;;;;;;;1999.90;999.90;;;1.20;99.90;;;;;;4979601;28;20857;-80
2022/12/09 10:27:13;;;;;;;1999.90;999.90;;;1.20;99.90;;;;;;4977784;28;20095;-82
2022/12/09 10:29:47;;;;;;;1999.90;999.90;;;1.30;99.90;;;;;;4977765;28;20167;-81
2022/12/09 10:32:17;;;;;;;1999.90;999.90;;;1.40;99.90;;;;;;4979958;28;20103;-82
2022/12/09 10:34:43;;;;;;;1999.90;999.90;;;1.50;99.90;;;;;;4980279;28;20035;-82
2022/12/09 10:37:23;;;;;;;1999.90;999.90;;;1.60;99.90;;;;;;4986428;28;20043;-82
2022/12/09 10:39:58;;;;;;;1999.90;999.90;;;1.70;99.90;;;;;;4985825;28;20523;-86
2022/12/09 10:45:09;;;;;;;1999.90;999.90;;;2.00;99.90;;;;;;4987873;28;20019;-85
2022/12/09 10:47:35;;;;;;;1999.90;999.90;;;2.20;99.90;;;;;;4986577;28;20039;-83
2022/12/09 10:50:02;;;;;;;1999.90;999.90;;;2.30;99.90;;;;;;4986496;28;20016;-83
2022/12/09 10:52:34;;;;;;;1999.90;999.90;;;2.40;99.90;;;;;;4996487;28;20858;-83
2022/12/09 10:55:01;;;;;;;1999.90;999.90;;;2.50;99.90;;;;;;5005880;28;20031;-83
2022/12/09 10:57:28;;;;;;;1999.90;999.90;;;2.50;99.90;;;;;;5012557;28;20643;-80
2022/12/09 11:00:00;;;;;;;1999.90;999.90;;;2.60;99.90;;;;;;5023220;28;20042;-80
2022/12/09 11:02:28;;;;;;;1999.90;999.90;;;2.60;99.90;;;;;;4992106;28;20041;-82
2022/12/09 11:04:54;;;;;;;1999.90;999.90;;;2.70;99.90;;;;;;4999951;28;20042;-81
2022/12/09 11:07:25;;;;;;;1999.90;999.90;;;2.60;99.90;;;;;;4997902;28;20396;-82
2022/12/09 11:10:06;;;;;;;1999.90;999.90;;;2.70;99.90;;;;;;4991991;28;20029;-83
2022/12/09 11:12:38;;;;;;;1999.90;999.90;;;2.70;99.90;;;;;;5002268;28;20038;-81
2022/12/09 11:15:05;;;;;;;1999.90;999.90;;;2.70;99.90;;;;;;4998918;28;20042;-82
2022/12/09 11:17:34;;;;;;;1999.90;999.90;;;2.70;99.90;;;;;;4995072;28;20059;-81
2022/12/09 11:20:17;;;;;;;1999.90;999.90;;;2.70;99.90;;;;;;5002916;28;20121;-82
2022/12/09 11:22:44;;;;;;;1999.90;999.90;;;2.80;99.90;;;;;;4991793;28;20055;-82
2022/12/09 11:25:20;;;;;;;1999.90;999.90;;;2.80;99.90;;;;;;5001623;28;20045;-84
2022/12/09 11:28:01;;;;;;;1999.90;999.90;;;2.80;99.90;;;;;;4985641;28;20035;-81
2022/12/09 11:30:32;;;;;;;1999.90;999.90;;;2.90;99.90;;;;;;5007321;23;20083;-76
2022/12/09 11:33:04;;;;;;;1999.90;999.90;;;2.90;99.90;;;;;;4988339;28;20473;-76
2022/12/09 11:35:38;;;;;;;1999.90;999.90;;;2.90;99.90;;;;;;4973150;28;20050;-76
2022/12/09 11:38:43;;;;;;;1999.90;999.90;;;2.90;99.90;;;;;;4967687;28;20036;-76
2022/12/09 11:41:12;;;;;;;1999.90;999.90;;;2.90;99.90;;;;;;4948914;28;20048;-76
2022/12/09 11:43:48;;;;;;;1999.90;999.90;;;3.00;99.90;;;;;;4946048;28;20031;-76
2022/12/09 11:46:16;;;;;;;1999.90;999.90;;;3.00;99.90;;;;;;4947935;28;20056;-76
2022/12/09 11:49:14;;;;;;;1999.90;999.90;;;3.00;99.90;;;;;;4944543;28;20036;-76
2022/12/09 11:51:57;;;;;;;1999.90;999.90;;;3.00;99.90;;;;;;4938851;28;20538;-76
2022/12/09 11:54:33;;;;;;;1999.90;999.90;;;3.00;99.90;;;;;;4947450;28;20321;-76
2022/12/09 11:57:02;;;;;;;1999.90;999.90;;;3.00;99.90;;;;;;4948852;28;20036;-76
2022/12/09 11:59:50;;;;;;;1999.90;999.90;;;3.00;99.90;;;;;;4967645;28;20035;-76
2022/12/09 12:02:32;;;;;;;1999.90;999.90;;;3.00;99.90;;;;;;4949441;28;20060;-76
2022/12/09 12:05:16;;;;;;;1999.90;999.90;;;2.90;99.90;;;;;;4949779;28;20383;-75
2022/12/09 12:07:59;;;;;;;1999.90;999.90;;;2.90;99.90;;;;;;4953712;28;20087;-76
2022/12/09 12:10:30;;;;;;;1999.90;999.90;;;2.90;99.90;;;;;;4945324;28;20042;-78
2022/12/09 12:13:22;;;;;;;1999.90;999.90;;;2.90;99.90;;;;;;4945194;28;20522;-76
2022/12/09 12:16:03;;;;;;;1999.90;999.90;;;2.90;99.90;;;;;;4939518;28;20115;-75
2022/12/09 12:18:34;;;;;;;1999.90;999.90;;;2.80;99.90;;;;;;4946534;28;20036;-76
2022/12/09 12:21:14;;;;;;;1999.90;999.90;;;2.80;99.90;;;;;;4936827;28;20039;-75
2022/12/09 12:24:09;;;;;;;1999.90;999.90;;;2.90;99.90;;;;;;4939091;28;20109;-77
2022/12/09 12:27:10;;;;;;;1999.90;999.90;;;2.90;99.90;;;;;;4947976;28;20039;-76
2022/12/09 12:30:08;;;;;;;1999.90;999.90;;;3.00;99.90;;;;;;4936690;28;20067;-81
2022/12/09 12:33:16;;;;;;;1999.90;999.90;;;3.10;99.90;;;;;;4947502;28;20051;-78
2022/12/09 12:35:54;;;;;;;1999.90;999.90;;;3.30;99.90;;;;;;4955174;28;20118;-78
2022/12/09 12:38:24;;;;;;;1999.90;999.90;;;3.40;99.90;;;;;;4949311;28;20418;-78
2022/12/09 12:41:20;;;;;;;1999.90;999.90;;;3.60;99.90;;;;;;4946316;28;20409;-76
2022/12/09 12:46:57;;;;;;;1999.90;999.90;;;3.60;99.90;;;;;;4951894;28;20044;-77
2022/12/09 12:49:50;;;;;;;1999.90;999.90;;;3.60;99.90;;;;;;4955014;28;20040;-79
2022/12/09 12:52:36;;;;;;;1999.90;999.90;;;3.70;99.90;;;;;;4949922;28;20044;-76
2022/12/09 12:55:23;;;;;;;1999.90;999.90;;;3.80;99.90;;;;;;4950504;28;20027;-80
2022/12/09 12:58:24;;;;;;;1999.90;999.90;;;3.80;99.90;;;;;;4937046;29;20439;-77
2022/12/09 13:01:28;;;;;;;1999.90;999.90;;;3.80;99.90;;;;;;4927763;28;20048;-77
2022/12/09 13:04:33;;;;;;;1999.90;999.90;;;3.90;99.90;;;;;;4936006;29;20040;-76
2022/12/09 13:07:27;;;;;;;1999.90;999.90;;;3.80;99.90;;;;;;4916891;28;20044;-77
2022/12/09 13:10:01;;;;;;;1999.90;999.90;;;3.70;99.90;;;;;;4937798;29;20082;-80
2022/12/09 13:15:33;;;;;;;1999.90;999.90;;;3.50;99.90;;;;;;4937942;29;20032;-78
2022/12/09 13:18:11;;;;;;;1999.90;999.90;;;3.50;99.90;;;;;;4937027;28;20048;-77
2022/12/09 13:20:48;;;;;;;1999.90;999.90;;;3.40;99.90;;;;;;4947040;28;20032;-78
2022/12/09 13:23:46;;;;;;;1999.90;999.90;;;3.50;99.90;;;;;;4941434;28;20036;-78
2022/12/09 13:26:30;;;;;;;1999.90;999.90;;;3.40;99.90;;;;;;4951735;28;20036;-78
2022/12/09 13:29:04;;;;;;;1999.90;999.90;;;3.50;99.90;;;;;;4950700;28;20998;-78
2022/12/09 13:31:33;;;;;;;1999.90;999.90;;;3.60;99.90;;;;;;4943540;28;20036;-79
2022/12/09 13:34:18;;;;;;;1999.90;999.90;;;3.50;99.90;;;;;;4963936;28;20083;-80
2022/12/09 13:36:46;;;;;;;1999.90;999.90;;;3.40;99.90;;;;;;4972460;28;20087;-78
2022/12/09 13:39:32;;;;;;;1999.90;999.90;;;3.30;99.90;;;;;;4974377;28;20086;-78
2022/12/09 13:44:45;;;;;;;1999.90;999.90;;;3.20;99.90;;;;;;4957070;28;20044;-77
2022/12/09 13:47:31;;;;;;;1999.90;999.90;;;3.20;99.90;;;;;;4956208;28;20032;-77
2022/12/09 13:50:01;;;;;;;1999.90;999.90;;;3.10;99.90;;;;;;4956163;28;20032;-78
2022/12/09 13:52:46;;;;;;;1999.90;999.90;;;3.10;99.90;;;;;;4970710;28;20067;-78
2022/12/09 13:56:01;;;;;;;1999.90;999.90;;;3.20;99.90;;;;;;4970355;28;20094;-78
2022/12/09 13:58:42;;;;;;;1999.90;999.90;;;3.20;99.90;;;;;;4924449;28;20529;-78
2022/12/09 14:01:11;;;;;;;1999.90;999.90;;;3.20;99.90;;;;;;4969759;28;20032;-78
2022/12/09 14:03:53;;;;;;;1999.90;999.90;;;3.10;99.90;;;;;;4955552;28;20079;-77
2022/12/09 14:06:27;;;;;;;1999.90;999.90;;;3.10;99.90;;;;;;4955924;28;20036;-77
2022/12/09 14:08:58;;;;;;;1999.90;999.90;;;3.10;99.90;;;;;;4970522;28;20046;-78
2022/12/09 14:11:35;;;;;;;1999.90;999.90;;;3.10;99.90;;;;;;4958046;28;20621;-78
2022/12/09 14:14:21;;;;;;;1999.90;999.90;;;3.10;99.90;;;;;;4973405;28;20043;-78
2022/12/09 14:16:47;;;;;;;1999.90;999.90;;;3.10;99.90;;;;;;4951102;28;20481;-77
2022/12/09 14:19:43;;;;;;;1999.90;999.90;;;3.10;99.90;;;;;;4958856;28;20035;-77
2022/12/09 14:22:21;;;;;;;1999.90;999.90;;;3.10;99.90;;;;;;4966988;28;20079;-77
2022/12/09 14:24:48;;;;;;;1999.90;999.90;;;3.10;99.90;;;;;;4973686;28;20568;-78
2022/12/09 14:27:30;;;;;;;1999.90;999.90;;;3.10;99.90;;;;;;4959533;28;20565;-77
2022/12/09 14:30:00;;;;;;;1999.90;999.90;;;3.00;99.90;;;;;;4972166;28;20119;-75
2022/12/09 14:32:27;;;;;;;1999.90;999.90;;;3.00;99.90;;;;;;4949518;28;20563;-77
2022/12/09 14:35:08;;;;;;;1999.90;999.90;;;3.10;99.90;;;;;;4958455;28;20035;-77
2022/12/09 14:37:59;;;;;;;1999.90;999.90;;;3.10;99.90;;;;;;4953527;28;20042;-77
2022/12/09 14:41:02;;;;;;;1999.90;999.90;;;3.00;99.90;;;;;;4953219;28;20131;-80
2022/12/09 14:43:37;;;;;;;1999.90;999.90;;;3.00;99.90;;;;;;4956956;28;20062;-76
2022/12/09 14:46:14;;;;;;;1999.90;999.90;;;3.00;99.90;;;;;;4948986;28;20521;-80
2022/12/09 14:48:40;;;;;;;1999.90;999.90;;;3.00;99.90;;;;;;4955412;28;20032;-78
2022/12/09 14:51:32;;;;;;;1999.90;999.90;;;2.90;99.90;;;;;;4961326;28;20028;-83
2022/12/09 14:54:02;;;;;;;1999.90;999.90;;;2.90;99.90;;;;;;4973214;28;20063;-78
2022/12/09 14:56:29;;;;;;;1999.90;999.90;;;2.90;99.90;;;;;;4946961;28;20036;-77
2022/12/09 14:59:01;;;;;;;1999.90;999.90;;;2.80;99.90;;;;;;4946863;28;20540;-78
2022/12/09 15:01:27;;;;;;;1999.90;999.90;;;2.80;99.90;;;;;;4944962;28;20028;-80
2022/12/09 15:03:57;;;;;;;1999.90;999.90;;;2.80;99.90;;;;;;4949863;28;20047;-78
2022/12/09 15:06:25;;;;;;;1999.90;999.90;;;2.80;99.90;;;;;;4952065;28;20345;-79
2022/12/09 15:08:58;;;;;;;1999.90;999.90;;;2.80;99.90;;;;;;4957278;28;20043;-77
2022/12/09 15:11:32;;;;;;;1999.90;999.90;;;2.80;99.90;;;;;;4952562;28;20380;-78
2022/12/09 15:14:25;;;;;;;1999.90;999.90;;;2.80;99.90;;;;;;4948776;28;20039;-79
2022/12/09 15:16:48;;;;;;;1999.90;999.90;;;2.80;99.90;;;;;;4941670;28;20036;-78
2022/12/09 15:19:20;;;;;;;1999.90;999.90;;;2.70;99.90;;;;;;4942764;28;20038;-78
2022/12/09 15:21:47;;;;;;;1999.90;999.90;;;2.70;99.90;;;;;;4957744;28;20027;-78
2022/12/09 15:24:14;;;;;;;1999.90;999.90;;;2.70;99.90;;;;;;4958742;28;20067;-78
2022/12/09 15:26:40;;;;;;;1999.90;999.90;;;2.70;99.90;;;;;;4973210;28;20134;-78
2022/12/09 15:29:17;;;;;;;1999.90;999.90;;;2.70;99.90;;;;;;4958709;28;20067;-78
2022/12/09 15:31:49;;;;;;;1999.90;999.90;;;2.70;99.90;;;;;;4958450;28;20765;-78
2022/12/09 15:34:19;;;;;;;1999.90;999.90;;;2.60;99.90;;;;;;4958822;28;20043;-78
2022/12/09 15:36:52;;;;;;;1999.90;999.90;;;2.60;99.90;;;;;;4957770;28;20035;-78
2022/12/09 15:39:24;;;;;;;1999.90;999.90;;;2.60;99.90;;;;;;4957686;28;20074;-84
2022/12/09 15:42:05;;;;;;;1999.90;999.90;;;2.60;99.90;;;;;;4957816;28;20036;-78
2022/12/09 15:44:46;;;;;;;1999.90;999.90;;;2.60;99.90;;;;;;4956340;28;20036;-78
2022/12/09 15:47:30;;;;;;;1999.90;999.90;;;2.60;99.90;;;;;;4958060;28;20040;-78
2022/12/09 15:50:09;;;;;;;1999.90;999.90;;;2.60;99.90;;;;;;4957448;28;20036;-77
2022/12/09 15:52:40;;;;;;;1999.90;999.90;;;2.60;99.90;;;;;;4938599;28;20044;-76
2022/12/09 15:55:11;;;;;;;1999.90;999.90;;;2.60;99.90;;;;;;4938998;28;20032;-77
2022/12/09 15:57:38;;;;;;;1999.90;999.90;;;2.60;99.90;;;;;;4958120;28;20043;-76
2022/12/09 16:00:05;;;;;;;1999.90;999.90;;;2.50;99.90;;;;;;4972422;28;20040;-77
2022/12/09 16:02:33;;;;;;;1999.90;999.90;;;2.50;99.90;;;;;;4949205;28;20036;-76
2022/12/09 16:05:04;;;;;;;1999.90;999.90;;;2.50;99.90;;;;;;4937604;29;20040;-77
2022/12/09 16:07:33;;;;;;;1999.90;999.90;;;2.50;99.90;;;;;;4939231;29;20036;-78
2022/12/09 16:10:05;;;;;;;1999.90;999.90;;;2.50;99.90;;;;;;4942394;28;20039;-77
2022/12/09 16:12:31;;;;;;;1999.90;999.90;;;2.50;99.90;;;;;;4957499;28;20039;-78
2022/12/09 16:14:57;;;;;;;1999.90;999.90;;;2.60;99.90;;;;;;4963638;28;20825;-76
2022/12/09 16:17:28;;;;;;;1999.90;999.90;;;2.50;99.90;;;;;;4956684;28;20036;-78
2022/12/09 16:19:54;;;;;;;1999.90;999.90;;;2.50;99.90;;;;;;4964930;28;20042;-79
2022/12/09 16:22:25;;;;;;;1999.90;999.90;;;2.50;99.90;;;;;;4971192;28;20141;-77
2022/12/09 16:24:59;;;;;;;1999.90;999.90;;;2.40;99.90;;;;;;4969396;28;20046;-79
2022/12/09 16:27:28;;;;;;;1999.90;999.90;;;2.40;99.90;;;;;;4958122;28;20035;-81
2022/12/09 16:29:57;;;;;;;1999.90;999.90;;;2.40;99.90;;;;;;4972006;28;20063;-78
2022/12/09 16:32:30;;;;;;;1999.90;999.90;;;2.40;99.90;;;;;;4956821;28;20548;-77
2022/12/09 16:35:13;;;;;;;1999.90;999.90;;;2.40;99.90;;;;;;4944235;28;20036;-76
2022/12/09 16:37:42;;;;;;;1999.90;999.90;;;2.40;99.90;;;;;;4956990;28;20486;-74
2022/12/09 16:40:19;;;;;;;1999.90;999.90;;;2.50;99.90;;;;;;4947510;28;20143;-75
2022/12/09 16:42:45;;;;;;;1999.90;999.90;;;2.50;99.90;;;;;;4968769;28;20040;-75
2022/12/09 16:45:31;;;;;;;1999.90;999.90;;;2.50;99.90;;;;;;4953068;28;20032;-74
2022/12/09 16:47:58;;;;;;;1999.90;999.90;;;2.40;99.90;;;;;;4935908;29;20486;-75
2022/12/09 16:50:30;;;;;;;1999.90;999.90;;;2.40;99.90;;;;;;4950939;28;20402;-77
2022/12/09 16:52:57;;;;;;;1999.90;999.90;;;2.40;99.90;;;;;;4961725;28;20048;-78
2022/12/09 16:55:26;;;;;;;1999.90;999.90;;;2.40;99.90;;;;;;4947041;28;20035;-76
2022/12/09 16:57:53;;;;;;;1999.90;999.90;;;2.40;99.90;;;;;;4947176;28;20036;-80
2022/12/09 17:00:19;;;;;;;1999.90;999.90;;;2.40;99.90;;;;;;4961214;28;20127;-75
2022/12/09 17:03:06;;;;;;;1999.90;999.90;;;2.40;99.90;;;;;;4940882;28;20044;-76
2022/12/09 17:05:31;;;;;;;1999.90;999.90;;;2.40;99.90;;;;;;4946586;28;20102;-75
2022/12/09 17:07:57;;;;;;;1999.90;999.90;;;2.40;99.90;;;;;;4947365;28;20439;-76
2022/12/09 17:10:22;;;;;;;1999.90;999.90;;;2.30;99.90;;;;;;4937612;29;20407;-74
2022/12/09 17:12:48;;;;;;;1999.90;999.90;;;2.30;99.90;;;;;;4937875;28;20048;-75
2022/12/09 17:15:16;;;;;;;1999.90;999.90;;;2.30;99.90;;;;;;4937910;29;20040;-76
2022/12/09 17:17:43;;;;;;;1999.90;999.90;;;2.30;99.90;;;;;;4948023;28;20112;-76
2022/12/09 17:20:09;;;;;;;1999.90;999.90;;;2.30;99.90;;;;;;4952783;28;20035;-75
2022/12/09 17:22:35;;;;;;;1999.90;999.90;;;2.30;99.90;;;;;;4956600;28;20063;-79
2022/12/09 17:25:00;;;;;;;1999.90;999.90;;;2.30;99.90;;;;;;4941182;28;20036;-80
2022/12/09 17:27:26;;;;;;;1999.90;999.90;;;2.30;99.90;;;;;;4951320;28;20036;-76
2022/12/09 17:29:52;;;;;;;1999.90;999.90;;;2.30;99.90;;;;;;4946412;28;20035;-77
2022/12/09 17:32:17;;;;;;;1999.90;999.90;;;2.30;99.90;;;;;;4958231;28;20044;-78
2022/12/09 17:34:43;;;;;;;1999.90;999.90;;;2.30;99.90;;;;;;4944281;28;20028;-78
2022/12/09 17:37:09;;;;;;;1999.90;999.90;;;2.30;99.90;;;;;;4956133;28;20039;-78
2022/12/09 17:39:35;;;;;;;1999.90;999.90;;;2.30;99.90;;;;;;4970312;28;20037;-78
2022/12/09 17:42:00;;;;;;;1999.90;999.90;;;2.30;99.90;;;;;;4970634;28;20371;-78